createdAt,value
2017-10-28T00:02:36.016Z,4.20
2017-10-28T00:05:37.996Z,4.30
2017-10-28T00:08:40.321Z,4.87
2017-10-28T00:11:42.218Z,5.13
2017-10-28T00:14:45.189Z,4.93
2017-10-28T00:17:47.190Z,4.87
2017-10-28T00:20:49.104Z,4.37
2017-10-28T00:23:50.999Z,4.47
2017-10-28T00:26:53.027Z,4.57
2017-10-28T00:29:55.030Z,3.37
2017-10-28T00:32:58.123Z,3.20
2017-10-28T00:36:00.127Z,3.40
2017-10-28T00:39:02.836Z,2.30
2017-10-28T00:42:05.522Z,2.43
2017-10-28T00:45:07.907Z,2.70
2017-10-28T00:48:09.888Z,2.10
2017-10-28T00:51:11.892Z,1.97
2017-10-28T00:54:14.693Z,2.13
2017-10-28T00:57:17.757Z,2.50
2017-10-28T01:00:19.668Z,2.30
2017-10-28T01:03:21.614Z,2.40
2017-10-28T01:06:23.540Z,2.20
2017-10-28T01:09:26.226Z,2.10
2017-10-28T01:12:28.206Z,1.73
2017-10-28T01:15:30.230Z,1.50
2017-10-28T01:18:32.118Z,1.40
2017-10-28T01:21:34.042Z,1.63
2017-10-28T01:24:35.934Z,1.63
2017-10-28T01:27:37.875Z,1.27
2017-10-28T01:30:39.801Z,1.60
2017-10-28T01:33:43.614Z,1.23
2017-10-28T01:36:45.621Z,1.00
2017-10-28T01:39:47.584Z,1.10
2017-10-28T01:42:49.469Z,1.00
2017-10-28T01:45:51.467Z,1.27
2017-10-28T01:48:53.419Z,1.37
2017-10-28T01:51:56.154Z,1.00
2017-10-28T01:54:59.596Z,1.07
2017-10-28T01:58:01.925Z,1.13
2017-10-28T02:01:04.046Z,0.97
2017-10-28T02:04:07.223Z,1.17
2017-10-28T02:07:09.125Z,0.70
2017-10-28T02:10:11.104Z,1.00
2017-10-28T02:13:13.104Z,0.77
2017-10-28T02:16:16.183Z,1.17
2017-10-28T02:19:18.165Z,0.83
2017-10-28T02:22:20.109Z,1.13
2017-10-28T02:25:22.026Z,0.90
2017-10-28T02:28:24.322Z,0.50
2017-10-28T02:31:26.208Z,0.67
2017-10-28T02:34:28.516Z,1.00
2017-10-28T02:37:30.449Z,0.70
2017-10-28T02:40:32.831Z,0.73
2017-10-28T02:43:34.766Z,0.83
2017-10-28T02:46:36.714Z,0.50
2017-10-28T02:49:38.706Z,0.70
2017-10-28T02:52:41.124Z,0.70
2017-10-28T02:55:43.102Z,0.90
2017-10-28T02:58:45.332Z,0.70
2017-10-28T03:01:47.259Z,0.77
2017-10-28T03:04:49.174Z,0.83
2017-10-28T03:07:51.840Z,0.63
2017-10-28T03:10:53.753Z,0.50
2017-10-28T03:13:56.519Z,0.73
2017-10-28T03:16:58.526Z,0.80
2017-10-28T03:20:00.731Z,0.60
2017-10-28T03:23:03.445Z,0.90
2017-10-28T03:26:05.362Z,0.50
2017-10-28T03:29:07.385Z,0.80
2017-10-28T03:32:09.340Z,0.70
2017-10-28T03:35:11.330Z,0.80
2017-10-28T03:38:13.306Z,0.60
2017-10-28T03:41:15.613Z,0.67
2017-10-28T03:44:18.293Z,0.73
2017-10-28T03:47:20.830Z,0.70
2017-10-28T03:50:22.748Z,0.70
2017-10-28T03:53:24.677Z,0.70
2017-10-28T03:56:27.376Z,0.90
2017-10-28T03:59:29.334Z,0.87
2017-10-28T04:02:31.354Z,0.50
2017-10-28T04:05:34.431Z,0.77
2017-10-28T04:08:36.410Z,0.67
2017-10-28T04:11:38.712Z,0.90
2017-10-28T04:14:40.705Z,0.63
2017-10-28T04:17:43.594Z,0.63
2017-10-28T04:20:45.490Z,1.30
2017-10-28T04:23:49.321Z,0.70
2017-10-28T04:26:51.210Z,0.80
2017-10-28T04:29:53.473Z,0.57
2017-10-28T04:32:55.480Z,0.93
2017-10-28T04:35:58.504Z,0.80
2017-10-28T04:39:01.181Z,0.77
2017-10-28T04:42:04.635Z,0.77
2017-10-28T04:45:06.563Z,1.13
2017-10-28T04:48:08.490Z,0.90
2017-10-28T04:51:11.266Z,0.70
2017-10-28T04:54:13.969Z,1.10
2017-10-28T04:57:15.927Z,1.03
2017-10-28T05:00:18.422Z,1.20
2017-10-28T05:03:20.341Z,1.70
2017-10-28T05:06:23.057Z,1.60
2017-10-28T05:09:24.965Z,1.60
2017-10-28T05:12:27.273Z,1.70
2017-10-28T05:15:29.191Z,1.80
2017-10-28T05:18:31.967Z,2.20
2017-10-28T05:21:34.712Z,1.90
2017-10-28T05:24:38.005Z,2.20
2017-10-28T05:27:40.786Z,2.40
2017-10-28T05:30:42.707Z,2.20
2017-10-28T05:33:44.662Z,2.20
2017-10-28T05:36:46.945Z,2.40
2017-10-28T05:39:48.928Z,2.80
2017-10-28T05:42:52.450Z,2.20
2017-10-28T05:45:54.353Z,2.63
2017-10-28T05:48:57.381Z,3.00
2017-10-28T05:51:59.315Z,2.40
2017-10-28T05:55:01.236Z,2.93
2017-10-28T05:58:03.119Z,3.47
2017-10-28T06:01:05.029Z,3.70
2017-10-28T06:04:06.962Z,3.43
2017-10-28T06:07:09.969Z,3.53
2017-10-28T06:10:12.727Z,3.40
2017-10-28T06:13:14.976Z,3.97
2017-10-28T06:16:16.923Z,3.17
2017-10-28T06:19:19.737Z,3.60
2017-10-28T06:22:21.709Z,3.90
2017-10-28T06:25:24.804Z,3.60
2017-10-28T06:28:26.715Z,4.07
2017-10-28T06:31:29.401Z,4.20
2017-10-28T06:34:31.366Z,3.93
2017-10-28T06:37:33.674Z,3.73
2017-10-28T06:40:35.571Z,4.30
2017-10-28T06:43:38.564Z,3.70
2017-10-28T06:46:40.469Z,3.87
2017-10-28T06:49:43.554Z,4.37
2017-10-28T06:52:45.530Z,4.07
2017-10-28T06:55:47.481Z,4.30
2017-10-28T06:58:49.405Z,3.73
2017-10-28T07:01:51.353Z,4.10
2017-10-28T07:04:53.355Z,3.77
2017-10-28T07:07:55.275Z,3.87
2017-10-28T07:10:58.031Z,3.90
2017-10-28T07:13:59.939Z,3.30
2017-10-28T07:17:01.834Z,3.87
2017-10-28T07:20:04.944Z,4.00
2017-10-28T07:23:06.997Z,3.60
2017-10-28T07:26:09.294Z,4.20
2017-10-28T07:29:11.253Z,3.23
2017-10-28T07:32:13.163Z,3.50
2017-10-28T07:35:15.086Z,3.20
2017-10-28T07:38:18.170Z,3.57
2017-10-28T07:41:20.147Z,3.40
2017-10-28T07:44:22.068Z,3.60
2017-10-28T07:47:23.962Z,4.07
2017-10-28T07:50:26.282Z,3.10
2017-10-28T07:53:28.268Z,3.27
2017-10-28T07:56:30.582Z,2.80
2017-10-28T07:59:32.675Z,2.87
2017-10-28T08:02:35.457Z,3.10
2017-10-28T08:05:37.348Z,2.63
2017-10-28T08:08:39.637Z,2.47
2017-10-28T08:11:41.535Z,2.20
2017-10-28T08:14:44.299Z,2.97
2017-10-28T08:17:46.315Z,2.27
2017-10-28T08:20:49.390Z,2.70
2017-10-28T08:23:51.409Z,2.30
2017-10-28T08:26:54.169Z,2.10
2017-10-28T08:29:56.159Z,2.00
2017-10-28T08:32:58.530Z,1.93
2017-10-28T08:36:00.428Z,2.13
2017-10-28T08:39:02.831Z,2.10
2017-10-28T08:42:04.810Z,1.67
2017-10-28T08:45:07.093Z,2.00
2017-10-28T08:48:08.978Z,2.13
2017-10-28T08:51:11.274Z,1.87
2017-10-28T08:54:13.261Z,2.60
2017-10-28T08:57:15.571Z,1.87
2017-10-28T09:00:17.546Z,1.90
2017-10-28T09:03:19.914Z,1.73
2017-10-28T09:06:21.934Z,1.90
2017-10-28T09:09:24.924Z,1.60
2017-10-28T09:12:26.887Z,1.90
2017-10-28T09:15:29.208Z,1.80
2017-10-28T09:18:31.151Z,2.30
2017-10-28T09:21:34.007Z,1.83
2017-10-28T09:24:36.935Z,2.67
2017-10-28T09:27:38.863Z,1.90
2017-10-28T09:30:40.758Z,2.30
2017-10-28T09:33:43.878Z,2.63
2017-10-28T09:36:45.790Z,2.33
2017-10-28T09:39:48.011Z,2.40
2017-10-28T09:42:50.007Z,2.50
2017-10-28T09:45:51.946Z,2.70
2017-10-28T09:48:53.866Z,2.63
2017-10-28T09:51:55.872Z,2.27
2017-10-28T09:54:57.829Z,2.57
2017-10-28T09:57:59.811Z,2.40
2017-10-28T10:01:01.817Z,2.50
2017-10-28T10:04:04.111Z,2.37
2017-10-28T10:07:06.094Z,2.57
2017-10-28T10:10:08.075Z,2.40
2017-10-28T10:13:10.053Z,2.30
2017-10-28T10:16:13.583Z,2.53
2017-10-28T10:19:15.584Z,2.53
2017-10-28T10:22:17.641Z,2.10
2017-10-28T10:25:19.623Z,2.80
2017-10-28T10:28:21.600Z,2.50
2017-10-28T10:31:23.493Z,2.80
2017-10-28T10:34:25.770Z,2.07
2017-10-28T10:37:27.775Z,1.83
2017-10-28T10:40:29.691Z,2.30
2017-10-28T10:43:31.581Z,2.35
2017-10-28T10:46:33.587Z,2.00
2017-10-28T10:49:35.482Z,2.23
2017-10-28T10:52:39.436Z,2.00
2017-10-28T10:55:42.222Z,2.33
2017-10-28T10:58:45.316Z,2.13
2017-10-28T11:01:47.334Z,2.00
2017-10-28T11:04:50.122Z,2.03
2017-10-28T11:07:52.022Z,1.53
2017-10-28T11:10:55.496Z,2.23
2017-10-28T11:13:57.478Z,2.80
2017-10-28T11:16:59.400Z,1.93
2017-10-28T11:20:02.162Z,2.70
2017-10-28T11:23:06.028Z,2.10
2017-10-28T11:26:07.926Z,1.93
2017-10-28T11:29:10.063Z,2.03
2017-10-28T11:32:12.075Z,1.83
2017-10-28T11:35:15.160Z,2.30
2017-10-28T11:38:17.245Z,2.35
2017-10-28T11:41:19.237Z,1.97
2017-10-28T11:44:21.203Z,2.20
2017-10-28T11:47:23.254Z,2.08
2017-10-28T11:50:25.151Z,2.13
2017-10-28T11:53:27.488Z,1.80
2017-10-28T11:56:29.480Z,2.15
2017-10-28T11:59:32.278Z,1.80
2017-10-28T12:02:34.251Z,2.08
2017-10-28T12:05:37.289Z,1.77
2017-10-28T12:08:40.070Z,2.37
2017-10-28T12:11:43.186Z,2.67
2017-10-28T12:14:45.954Z,3.07
2017-10-28T12:17:48.246Z,1.97
2017-10-28T12:20:50.224Z,2.00
2017-10-28T12:23:52.541Z,2.40
2017-10-28T12:26:54.519Z,1.83
2017-10-28T12:29:56.509Z,2.42
2017-10-28T12:32:58.438Z,2.50
2017-10-28T12:36:00.761Z,1.90
2017-10-28T12:39:02.686Z,2.20
2017-10-28T12:42:05.438Z,2.47
2017-10-28T12:45:07.336Z,2.20
2017-10-28T12:48:09.625Z,2.30
2017-10-28T12:51:11.617Z,2.17
2017-10-28T12:54:13.883Z,3.10
2017-10-28T12:57:15.793Z,2.77
2017-10-28T13:00:18.190Z,2.53
2017-10-28T13:03:20.850Z,2.45
2017-10-28T13:06:23.178Z,1.90
2017-10-28T13:09:25.106Z,2.45
2017-10-28T13:12:27.122Z,2.50
2017-10-28T13:15:29.105Z,2.60
2017-10-28T13:18:31.390Z,2.30
2017-10-28T13:21:33.719Z,1.98
2017-10-28T13:24:36.498Z,2.40
2017-10-28T13:27:38.394Z,1.98
2017-10-28T13:30:41.472Z,3.03
2017-10-28T13:33:43.403Z,2.20
2017-10-28T13:36:46.114Z,2.30
2017-10-28T13:39:48.055Z,2.23
2017-10-28T13:42:50.042Z,2.60
2017-10-28T13:45:51.938Z,2.27
2017-10-28T13:48:54.675Z,2.60
2017-10-28T13:51:56.581Z,2.58
2017-10-28T13:54:58.880Z,2.20
2017-10-28T13:58:00.855Z,2.40
2017-10-28T14:01:03.177Z,2.45
2017-10-28T14:04:05.979Z,2.37
2017-10-28T14:07:07.934Z,2.37
2017-10-28T14:10:09.853Z,2.37
2017-10-28T14:13:12.931Z,2.90
2017-10-28T14:16:14.927Z,2.70
2017-10-28T14:19:16.910Z,2.70
2017-10-28T14:22:18.923Z,2.83
2017-10-28T14:25:20.844Z,2.43
2017-10-28T14:28:22.778Z,1.97
2017-10-28T14:31:25.856Z,2.87
2017-10-28T14:34:27.827Z,2.67
2017-10-28T14:37:29.831Z,2.70
2017-10-28T14:40:31.901Z,2.20
2017-10-28T14:43:33.897Z,2.60
2017-10-28T14:46:36.064Z,2.12
2017-10-28T14:49:38.047Z,1.98
2017-10-28T14:52:39.939Z,2.80
2017-10-28T14:55:41.937Z,2.55
2017-10-28T14:58:43.902Z,2.60
2017-10-28T15:01:45.884Z,2.13
2017-10-28T15:04:47.859Z,2.62
2017-10-28T15:07:50.150Z,1.97
2017-10-28T15:10:53.069Z,3.07
2017-10-28T15:13:55.069Z,3.20
2017-10-28T15:16:56.989Z,2.97
2017-10-28T15:19:59.025Z,2.40
2017-10-28T15:23:02.659Z,2.77
2017-10-28T15:26:04.967Z,2.67
2017-10-28T15:29:07.038Z,2.67
2017-10-28T15:32:09.886Z,2.37
2017-10-28T15:35:11.808Z,2.17
2017-10-28T15:38:14.105Z,2.40
2017-10-28T15:41:16.046Z,2.83
2017-10-28T15:44:19.049Z,2.83
2017-10-28T15:47:21.102Z,2.40
2017-10-28T15:50:24.161Z,2.63
2017-10-28T15:53:26.175Z,3.17
2017-10-28T15:56:28.668Z,3.33
2017-10-28T15:59:31.343Z,2.50
2017-10-28T16:02:33.560Z,2.83
2017-10-28T16:05:35.588Z,2.97
2017-10-28T16:08:37.934Z,3.00
2017-10-28T16:11:40.735Z,2.80
2017-10-28T16:14:44.161Z,3.10
2017-10-28T16:17:46.823Z,2.90
2017-10-28T16:20:49.067Z,2.47
2017-10-28T16:23:50.989Z,2.73
2017-10-28T16:26:53.007Z,3.20
2017-10-28T16:29:54.952Z,3.00
2017-10-28T16:32:56.980Z,2.60
2017-10-28T16:35:58.896Z,2.40
2017-10-28T16:39:01.214Z,2.47
2017-10-28T16:42:03.241Z,2.85
2017-10-28T16:45:06.139Z,2.50
2017-10-28T16:48:08.822Z,2.50
2017-10-28T16:51:10.790Z,2.83
2017-10-28T16:54:12.694Z,3.13
2017-10-28T16:57:14.677Z,2.33
2017-10-28T17:00:16.623Z,2.73
2017-10-28T17:03:18.633Z,2.97
2017-10-28T17:06:20.621Z,2.30
2017-10-28T17:09:23.699Z,2.57
2017-10-28T17:12:26.208Z,2.10
2017-10-28T17:15:28.520Z,2.30
2017-10-28T17:18:30.418Z,2.53
2017-10-28T17:21:33.414Z,2.67
2017-10-28T17:24:36.074Z,3.00
2017-10-28T17:27:38.022Z,2.70
2017-10-28T17:30:39.968Z,3.70
2017-10-28T17:33:42.234Z,3.40
2017-10-28T17:36:44.219Z,4.20
2017-10-28T17:39:46.763Z,4.33
2017-10-28T17:42:49.496Z,5.00
2017-10-28T17:45:51.862Z,5.00
2017-10-28T17:48:54.653Z,5.87
2017-10-28T17:51:57.449Z,5.97
2017-10-28T17:55:00.246Z,5.60
2017-10-28T17:58:02.274Z,6.43
2017-10-28T18:01:04.321Z,7.00
2017-10-28T18:04:06.277Z,7.23
2017-10-28T18:07:08.376Z,7.97
2017-10-28T18:10:10.694Z,8.03
2017-10-28T18:13:12.658Z,8.20
2017-10-28T18:16:15.468Z,7.97
2017-10-28T18:19:17.457Z,8.03
2017-10-28T18:22:19.493Z,7.27
2017-10-28T18:25:21.503Z,7.23
2017-10-28T18:28:23.822Z,7.10
2017-10-28T18:31:25.738Z,7.37
2017-10-28T18:34:28.066Z,7.87
2017-10-28T18:37:29.982Z,7.47
2017-10-28T18:40:33.704Z,7.43
2017-10-28T18:43:35.714Z,6.87
2017-10-28T18:46:38.098Z,7.17
2017-10-28T18:49:40.829Z,7.83
2017-10-28T18:52:43.152Z,7.87
2017-10-28T18:55:45.168Z,8.63
2017-10-28T18:58:47.875Z,11.50
2017-10-28T19:01:50.574Z,28.07
2017-10-28T19:04:53.618Z,9.67
2017-10-28T19:07:55.579Z,11.03
2017-10-28T19:10:57.866Z,11.63
2017-10-28T19:14:00.568Z,10.27
2017-10-28T19:17:03.661Z,9.20
2017-10-28T19:20:05.639Z,10.70
2017-10-28T19:23:08.351Z,10.17
2017-10-28T19:26:10.329Z,10.63
2017-10-28T19:29:12.636Z,8.97
2017-10-28T19:32:15.327Z,8.33
2017-10-28T19:35:17.289Z,8.30
2017-10-28T19:38:19.292Z,7.33
2017-10-28T19:41:21.315Z,5.43
2017-10-28T19:44:24.085Z,3.50
2017-10-28T19:47:26.038Z,3.13
2017-10-28T19:50:27.965Z,2.87
2017-10-28T19:53:29.936Z,2.80
2017-10-28T19:56:31.918Z,2.50
2017-10-28T19:59:33.840Z,2.07
2017-10-28T20:02:35.757Z,1.73
2017-10-28T20:05:37.814Z,1.83
2017-10-28T20:08:39.883Z,2.17
2017-10-28T20:11:42.149Z,2.77
2017-10-28T20:14:44.088Z,3.00
2017-10-28T20:17:46.858Z,3.57
2017-10-28T20:20:48.880Z,3.58
2017-10-28T20:23:50.817Z,3.20
2017-10-28T20:26:52.760Z,2.67
2017-10-28T20:29:54.710Z,3.27
2017-10-28T20:32:56.735Z,2.90
2017-10-28T20:35:59.036Z,2.22
2017-10-28T20:39:01.022Z,2.80
2017-10-28T20:42:03.440Z,1.70
2017-10-28T20:45:06.126Z,11.93
2017-10-28T20:48:08.395Z,1.47
2017-10-28T20:51:10.511Z,1.23
2017-10-28T20:54:12.641Z,1.00
2017-10-28T20:57:14.537Z,1.20
2017-10-28T21:00:16.565Z,1.00
2017-10-28T21:03:18.542Z,1.27
2017-10-28T21:06:21.069Z,1.00
2017-10-28T21:09:23.046Z,0.70
2017-10-28T21:12:24.993Z,0.70
2017-10-28T21:15:26.994Z,0.70
2017-10-28T21:18:29.300Z,1.08
2017-10-28T21:21:31.272Z,0.80
2017-10-28T21:24:33.192Z,0.60
2017-10-28T21:27:35.395Z,1.00
2017-10-28T21:30:38.261Z,0.67
2017-10-28T21:33:40.162Z,0.90
2017-10-28T21:36:42.568Z,0.70
2017-10-28T21:39:44.566Z,0.50
2017-10-28T21:42:46.852Z,0.40
2017-10-28T21:45:48.746Z,0.50
2017-10-28T21:48:51.041Z,0.30
2017-10-28T21:51:52.930Z,0.80
2017-10-28T21:54:56.034Z,0.80
2017-10-28T21:57:57.937Z,1.12
2017-10-28T22:01:01.204Z,0.70
2017-10-28T22:04:03.122Z,1.25
2017-10-28T22:07:05.374Z,1.27
2017-10-28T22:10:07.537Z,1.10
2017-10-28T22:13:10.321Z,0.75
2017-10-28T22:16:12.243Z,1.07
2017-10-28T22:19:15.035Z,1.33
2017-10-28T22:22:17.046Z,1.17
2017-10-28T22:25:18.965Z,1.00
2017-10-28T22:28:20.859Z,1.20
2017-10-28T22:31:22.785Z,1.15
2017-10-28T22:34:25.454Z,1.62
2017-10-28T22:37:27.738Z,1.50
2017-10-28T22:40:29.959Z,1.27
2017-10-28T22:43:33.052Z,1.73
2017-10-28T22:46:34.944Z,1.77
2017-10-28T22:49:37.941Z,1.40
2017-10-28T22:52:39.902Z,1.60
2017-10-28T22:55:42.213Z,1.33
2017-10-28T22:58:44.168Z,1.90
2017-10-28T23:01:46.419Z,1.98
2017-10-28T23:04:48.328Z,2.35
2017-10-28T23:07:50.330Z,2.08
2017-10-28T23:10:52.309Z,2.30
2017-10-28T23:13:54.285Z,2.47
2017-10-28T23:16:56.317Z,2.78
2017-10-28T23:19:58.362Z,2.58
2017-10-28T23:23:00.371Z,3.10
2017-10-28T23:26:02.350Z,2.53
2017-10-28T23:29:04.322Z,2.87
2017-10-28T23:32:06.596Z,2.42
2017-10-28T23:35:08.493Z,3.75
2017-10-28T23:38:10.469Z,2.40
2017-10-28T23:41:12.468Z,3.30
2017-10-28T23:44:15.495Z,2.78
2017-10-28T23:47:18.287Z,3.15
2017-10-28T23:50:20.229Z,3.20
2017-10-28T23:53:22.138Z,3.78
2017-10-28T23:56:24.445Z,3.37
2017-10-28T23:59:26.399Z,4.67
